Portrush, United Kingdom
Current Conditions -  °F | °C
As of 9:50 AM on Friday 19 Dec 2014 (Local Time) from EGAE Reporting Station
Rain Showers Rain Showers  
Wind Chill:   Ceiling: 1500
Heat Index:   Visibility: 4mi
Dew Point:   Wind: 20mph
Humidity: 87%   Direction: 250°WSW
Pressure: 29.77"   Gusts: 31mph
Location:  55.2°N, 6.65°W
Report Text: EGAE 190950Z 25017G27KT 7000 SHRA FEW010 BKN015CB 05/03 Q1008
Loading
Personal Weather Stations






























Interactive Weather Map New forecast layout! Learn more

10-Day Weather Forecast

Advertisements
Track Severe Weather on mobile